PWSweather.com
Personal Weather Stations
Station Observations
ISYDDANM23
Felsted, AabenraaDK 6200

FelstedAabenraaDK 6200

Lat: 54.977066, Lon: 9.507192

Elevation: 135

Station Type: Davis Vantage Pro 2 Plus 24H

http://www.valkaer.dk

High Low Average
Temperature 67.0°F19.4°C 53.7°F12.1°C 62.6°F17.0°C
Dew Point 62.0°F16.7°C 50.8°F10.4°C 58.0°F14.4°C
Winds 12.7 mph 20.4 kmh Calm Calm 6.0 mph WSW9.7 kmh WSW
Wind Gusts 18.4 mph29.6 kmh -- 8.0 mph12.9 kmh
Humidity 93% 74% 85%
Pressure 29.93 in1013.5 mb 29.68 in1005.1 mb -
Precipitation 0.01 in0.3 mm - -
Hour Temp Dew Point Humidity Winds Wind Gusts Pressure Precip Precip Rate Daily Precip Total
12:00 AM 60.6°F15.9°C 57.6°F14.2°C 90% Calm Calm -- 29.70 in1005.8 mb - 0.00 in0.0 mm 0.00 in0.0 mm
12:10 AM 60.2°F15.7°C 57.2°F14.0°C 90% 1.2 mph WSW1.9 kmh WSW 1.2 mph1.9 kmh 29.71 in1006.1 mb - 0.00 in0.0 mm 0.00 in0.0 mm
12:15 AM 59.7°F15.4°C 56.7°F13.7°C 90% Calm Calm 1.2 mph1.9 kmh 29.71 in1006.1 mb - 0.00 in0.0 mm 0.00 in0.0 mm
12:20 AM 60.1°F15.6°C 57.7°F14.3°C 92% Calm Calm 2.3 mph3.7 kmh 29.70 in1005.8 mb - 0.00 in0.0 mm 0.00 in0.0 mm
12:25 AM 60.6°F15.9°C 58.2°F14.6°C 92% 1.2 mph WSW1.9 kmh WSW 2.3 mph3.7 kmh 29.71 in1006.1 mb - 0.00 in0.0 mm 0.00 in0.0 mm
12:30 AM 60.9°F16.1°C 58.6°F14.8°C 92% 1.2 mph SW1.9 kmh SW 2.3 mph3.7 kmh 29.71 in1006.1 mb - 0.00 in0.0 mm 0.00 in0.0 mm
12:35 AM 61.1°F16.2°C 58.5°F14.7°C 91% 1.2 mph SW1.9 kmh SW 1.2 mph1.9 kmh 29.70 in1005.8 mb - 0.00 in0.0 mm 0.00 in0.0 mm
12:40 AM 60.8°F16.0°C 58.2°F14.6°C 91% Calm Calm 1.2 mph1.9 kmh 29.71 in1006.1 mb - 0.00 in0.0 mm 0.00 in0.0 mm
12:45 AM 60.9°F16.1°C 58.3°F14.6°C 91% 1.2 mph SW1.9 kmh SW 2.3 mph3.7 kmh 29.71 in1006.1 mb - 0.00 in0.0 mm 0.00 in0.0 mm
12:50 AM 61.2°F16.2°C 58.9°F14.9°C 92% 2.3 mph SSW3.7 kmh SSW 3.5 mph5.6 kmh 29.71 in1006.1 mb - 0.00 in0.0 mm 0.00 in0.0 mm
12:55 AM 61.5°F16.4°C 59.2°F15.1°C 92% 3.5 mph S5.6 kmh S 4.6 mph7.4 kmh 29.71 in1006.1 mb - 0.00 in0.0 mm 0.00 in0.0 mm
01:00 AM 62.1°F16.7°C 59.8°F15.4°C 92% 3.5 mph S5.6 kmh S 4.6 mph7.4 kmh 29.71 in1006.1 mb - 0.00 in0.0 mm 0.00 in0.0 mm
01:10 AM 62.7°F17.1°C 60.3°F15.7°C 92% 2.3 mph S3.7 kmh S 3.5 mph5.6 kmh 29.71 in1006.1 mb - 0.00 in0.0 mm 0.00 in0.0 mm
01:15 AM 62.8°F17.1°C 60.4°F15.8°C 92% 2.3 mph S3.7 kmh S 3.5 mph5.6 kmh 29.71 in1006.1 mb - 0.00 in0.0 mm 0.00 in0.0 mm
01:20 AM 63.0°F17.2°C 60.6°F15.9°C 92% 2.3 mph SW3.7 kmh SW 3.5 mph5.6 kmh 29.71 in1006.1 mb - 0.00 in0.0 mm 0.00 in0.0 mm
01:25 AM 63.0°F17.2°C 60.6°F15.9°C 92% 3.5 mph SW5.6 kmh SW 4.6 mph7.4 kmh 29.71 in1006.1 mb - 0.00 in0.0 mm 0.00 in0.0 mm
01:30 AM 63.2°F17.3°C 60.5°F15.8°C 91% 4.6 mph SW7.4 kmh SW 6.9 mph11.1 kmh 29.71 in1006.1 mb - 0.00 in0.0 mm 0.00 in0.0 mm
01:35 AM 63.2°F17.3°C 60.6°F15.9°C 91% 3.5 mph SW5.6 kmh SW 5.8 mph9.3 kmh 29.71 in1006.1 mb - 0.00 in0.0 mm 0.00 in0.0 mm
01:40 AM 63.3°F17.4°C 60.6°F15.9°C 91% 4.6 mph SW7.4 kmh SW 5.8 mph9.3 kmh 29.71 in1006.1 mb - 0.00 in0.0 mm 0.00 in0.0 mm
01:45 AM 63.5°F17.5°C 60.8°F16.0°C 91% 3.5 mph SW5.6 kmh SW 5.8 mph9.3 kmh 29.70 in1005.8 mb - 0.00 in0.0 mm 0.00 in0.0 mm
01:50 AM 63.6°F17.6°C 60.6°F15.9°C 90% 3.5 mph WSW5.6 kmh WSW 6.9 mph11.1 kmh 29.70 in1005.8 mb - 0.00 in0.0 mm 0.00 in0.0 mm
01:55 AM 63.7°F17.6°C 60.7°F15.9°C 90% 4.6 mph SW7.4 kmh SW 5.8 mph9.3 kmh 29.70 in1005.8 mb - 0.00 in0.0 mm 0.00 in0.0 mm
02:00 AM 63.7°F17.6°C 60.4°F15.8°C 89% 4.6 mph WSW7.4 kmh WSW 4.6 mph7.4 kmh 29.70 in1005.8 mb - 0.00 in0.0 mm 0.00 in0.0 mm
02:10 AM 63.7°F17.6°C 60.7°F15.9°C 90% 6.9 mph WSW11.1 kmh WSW 8.1 mph13.0 kmh 29.70 in1005.8 mb - 0.01 in0.3 mm 0.01 in0.3 mm
02:15 AM 63.7°F17.6°C 60.7°F15.9°C 90% 5.8 mph W9.3 kmh W 6.9 mph11.1 kmh 29.70 in1005.8 mb - 0.01 in0.3 mm 0.01 in0.3 mm
02:20 AM 63.7°F17.6°C 60.7°F15.9°C 90% 3.5 mph W5.6 kmh W 3.5 mph5.6 kmh 29.69 in1005.4 mb - 0.01 in0.3 mm 0.01 in0.3 mm
02:25 AM 63.6°F17.6°C 60.6°F15.9°C 90% 3.5 mph SW5.6 kmh SW 4.6 mph7.4 kmh 29.69 in1005.4 mb - 0.01 in0.3 mm 0.01 in0.3 mm
02:30 AM 63.5°F17.5°C 60.8°F16.0°C 91% 3.5 mph SW5.6 kmh SW 3.5 mph5.6 kmh 29.70 in1005.8 mb - 0.01 in0.3 mm 0.01 in0.3 mm
02:35 AM 63.3°F17.4°C 60.7°F15.9°C 91% 2.3 mph SSW3.7 kmh SSW 3.5 mph5.6 kmh 29.70 in1005.8 mb - 0.01 in0.3 mm 0.01 in0.3 mm
02:40 AM 63.2°F17.3°C 60.5°F15.8°C 91% 2.3 mph SW3.7 kmh SW 3.5 mph5.6 kmh 29.70 in1005.8 mb - 0.01 in0.3 mm 0.01 in0.3 mm
02:45 AM 63.1°F17.3°C 60.5°F15.8°C 91% 1.2 mph SW1.9 kmh SW 2.3 mph3.7 kmh 29.70 in1005.8 mb - 0.01 in0.3 mm 0.01 in0.3 mm
02:50 AM 63.1°F17.3°C 60.4°F15.8°C 91% 3.5 mph WSW5.6 kmh WSW 5.8 mph9.3 kmh 29.69 in1005.4 mb - 0.01 in0.3 mm 0.01 in0.3 mm
02:55 AM 63.1°F17.3°C 60.4°F15.8°C 91% 2.3 mph WSW3.7 kmh WSW 2.3 mph3.7 kmh 29.69 in1005.4 mb - 0.01 in0.3 mm 0.01 in0.3 mm
03:00 AM 63.0°F17.2°C 60.3°F15.7°C 91% 1.2 mph WSW1.9 kmh WSW 2.3 mph3.7 kmh 29.69 in1005.4 mb - 0.01 in0.3 mm 0.01 in0.3 mm
03:10 AM 62.8°F17.1°C 60.1°F15.6°C 91% 1.2 mph SW1.9 kmh SW 1.2 mph1.9 kmh 29.70 in1005.8 mb - 0.00 in0.0 mm 0.01 in0.3 mm
03:15 AM 62.7°F17.1°C 60.0°F15.6°C 91% Calm Calm 1.2 mph1.9 kmh 29.69 in1005.4 mb - 0.00 in0.0 mm 0.01 in0.3 mm
03:20 AM 62.6°F17.0°C 60.0°F15.6°C 91% Calm Calm -- 29.69 in1005.4 mb - 0.00 in0.0 mm 0.01 in0.3 mm
03:25 AM 62.5°F16.9°C 59.8°F15.4°C 91% Calm Calm -- 29.69 in1005.4 mb - 0.00 in0.0 mm 0.01 in0.3 mm
03:30 AM 62.4°F16.9°C 59.7°F15.4°C 91% 1.2 mph SSW1.9 kmh SSW 2.3 mph3.7 kmh 29.69 in1005.4 mb - 0.00 in0.0 mm 0.01 in0.3 mm
03:35 AM 62.2°F16.8°C 59.6°F15.3°C 91% 1.2 mph SSW1.9 kmh SSW 2.3 mph3.7 kmh 29.69 in1005.4 mb - 0.00 in0.0 mm 0.01 in0.3 mm
03:40 AM 62.1°F16.7°C 59.5°F15.3°C 91% 1.2 mph SSW1.9 kmh SSW 3.5 mph5.6 kmh 29.69 in1005.4 mb - 0.00 in0.0 mm 0.01 in0.3 mm
03:45 AM 62.0°F16.7°C 59.3°F15.2°C 91% 1.2 mph SSW1.9 kmh SSW 2.3 mph3.7 kmh 29.69 in1005.4 mb - 0.00 in0.0 mm 0.01 in0.3 mm
03:50 AM 61.8°F16.6°C 59.2°F15.1°C 91% 1.2 mph SSW1.9 kmh SSW 3.5 mph5.6 kmh 29.69 in1005.4 mb - 0.00 in0.0 mm 0.01 in0.3 mm
03:55 AM 61.7°F16.5°C 59.0°F15.0°C 91% 1.2 mph SSW1.9 kmh SSW 2.3 mph3.7 kmh 29.69 in1005.4 mb - 0.00 in0.0 mm 0.01 in0.3 mm
04:00 AM 61.5°F16.4°C 58.8°F14.9°C 91% 1.2 mph SSW1.9 kmh SSW 2.3 mph3.7 kmh 29.68 in1005.1 mb - 0.00 in0.0 mm 0.01 in0.3 mm
04:10 AM 61.1°F16.2°C 58.5°F14.7°C 91% 1.2 mph SSW1.9 kmh SSW 2.3 mph3.7 kmh 29.69 in1005.4 mb - 0.00 in0.0 mm 0.01 in0.3 mm
04:15 AM 61.0°F16.1°C 58.7°F14.8°C 92% 1.2 mph SSW1.9 kmh SSW 2.3 mph3.7 kmh 29.69 in1005.4 mb - 0.00 in0.0 mm 0.01 in0.3 mm
04:20 AM 60.8°F16.0°C 58.1°F14.5°C 91% 1.2 mph SSW1.9 kmh SSW 2.3 mph3.7 kmh 29.69 in1005.4 mb - 0.00 in0.0 mm 0.01 in0.3 mm
04:25 AM 60.6°F15.9°C 58.3°F14.6°C 92% 1.2 mph SSW1.9 kmh SSW 2.3 mph3.7 kmh 29.69 in1005.4 mb - 0.00 in0.0 mm 0.01 in0.3 mm
04:30 AM 60.7°F15.9°C 58.3°F14.6°C 92% 2.3 mph SSW3.7 kmh SSW 3.5 mph5.6 kmh 29.69 in1005.4 mb - 0.00 in0.0 mm 0.01 in0.3 mm
04:35 AM 60.7°F15.9°C 58.4°F14.7°C 92% 1.2 mph SSW1.9 kmh SSW 2.3 mph3.7 kmh 29.69 in1005.4 mb - 0.00 in0.0 mm 0.01 in0.3 mm
04:40 AM 60.8°F16.0°C 58.5°F14.7°C 92% 2.3 mph SSW3.7 kmh SSW 3.5 mph5.6 kmh 29.69 in1005.4 mb - 0.00 in0.0 mm 0.01 in0.3 mm
04:45 AM 60.7°F15.9°C 58.3°F14.6°C 92% 1.2 mph SSW1.9 kmh SSW 2.3 mph3.7 kmh 29.69 in1005.4 mb - 0.00 in0.0 mm 0.01 in0.3 mm
04:50 AM 60.9°F16.1°C 58.5°F14.7°C 92% 1.2 mph SSW1.9 kmh SSW 2.3 mph3.7 kmh 29.69 in1005.4 mb - 0.00 in0.0 mm 0.01 in0.3 mm
04:55 AM 60.8°F16.0°C 58.5°F14.7°C 92% 1.2 mph SSW1.9 kmh SSW 2.3 mph3.7 kmh 29.69 in1005.4 mb - 0.00 in0.0 mm 0.01 in0.3 mm
05:00 AM 61.1°F16.2°C 59.0°F15.0°C 93% 1.2 mph SSW1.9 kmh SSW 2.3 mph3.7 kmh 29.69 in1005.4 mb - 0.00 in0.0 mm 0.01 in0.3 mm
05:10 AM 61.2°F16.2°C 59.1°F15.1°C 93% 1.2 mph SSW1.9 kmh SSW 2.3 mph3.7 kmh 29.69 in1005.4 mb - 0.00 in0.0 mm 0.01 in0.3 mm
05:15 AM 61.4°F16.3°C 59.4°F15.2°C 93% 2.3 mph SSW3.7 kmh SSW 3.5 mph5.6 kmh 29.69 in1005.4 mb - 0.00 in0.0 mm 0.01 in0.3 mm
05:20 AM 61.5°F16.4°C 59.1°F15.1°C 92% 2.3 mph SW3.7 kmh SW 3.5 mph5.6 kmh 29.69 in1005.4 mb - 0.00 in0.0 mm 0.01 in0.3 mm
05:25 AM 61.4°F16.3°C 59.1°F15.1°C 92% 2.3 mph SW3.7 kmh SW 3.5 mph5.6 kmh 29.69 in1005.4 mb - 0.00 in0.0 mm 0.01 in0.3 mm
05:30 AM 61.3°F16.3°C 59.0°F15.0°C 92% 1.2 mph SW1.9 kmh SW 2.3 mph3.7 kmh 29.69 in1005.4 mb - 0.00 in0.0 mm 0.01 in0.3 mm
05:35 AM 61.2°F16.2°C 58.9°F14.9°C 92% 1.2 mph SW1.9 kmh SW 3.5 mph5.6 kmh 29.69 in1005.4 mb - 0.00 in0.0 mm 0.01 in0.3 mm
05:40 AM 61.4°F16.3°C 59.3°F15.2°C 93% 1.2 mph SW1.9 kmh SW 2.3 mph3.7 kmh 29.69 in1005.4 mb - 0.00 in0.0 mm 0.01 in0.3 mm
05:45 AM 61.8°F16.6°C 59.7°F15.4°C 93% 1.2 mph SW1.9 kmh SW 3.5 mph5.6 kmh 29.69 in1005.4 mb - 0.00 in0.0 mm 0.01 in0.3 mm
05:50 AM 62.1°F16.7°C 60.1°F15.6°C 93% 2.3 mph SW3.7 kmh SW 4.6 mph7.4 kmh 29.69 in1005.4 mb - 0.00 in0.0 mm 0.01 in0.3 mm
05:55 AM 62.3°F16.8°C 59.9°F15.5°C 92% 3.5 mph SW5.6 kmh SW 3.5 mph5.6 kmh 29.69 in1005.4 mb - 0.00 in0.0 mm 0.01 in0.3 mm
06:00 AM 62.5°F16.9°C 60.1°F15.6°C 92% 3.5 mph SSW5.6 kmh SSW 4.6 mph7.4 kmh 29.69 in1005.4 mb - 0.00 in0.0 mm 0.01 in0.3 mm
06:10 AM 63.1°F17.3°C 60.7°F15.9°C 92% 3.5 mph SW5.6 kmh SW 3.5 mph5.6 kmh 29.70 in1005.8 mb - 0.00 in0.0 mm 0.01 in0.3 mm
06:15 AM 63.2°F17.3°C 60.8°F16.0°C 92% 4.6 mph SW7.4 kmh SW 5.8 mph9.3 kmh 29.70 in1005.8 mb - 0.00 in0.0 mm 0.01 in0.3 mm
06:20 AM 63.3°F17.4°C 60.9°F16.1°C 92% 4.6 mph SW7.4 kmh SW 5.8 mph9.3 kmh 29.71 in1006.1 mb - 0.00 in0.0 mm 0.01 in0.3 mm
06:25 AM 63.5°F17.5°C 61.2°F16.2°C 92% 3.5 mph SW5.6 kmh SW 3.5 mph5.6 kmh 29.71 in1006.1 mb - 0.00 in0.0 mm 0.01 in0.3 mm
06:30 AM 63.8°F17.7°C 61.4°F16.3°C 92% 4.6 mph SW7.4 kmh SW 9.2 mph14.8 kmh 29.71 in1006.1 mb - 0.00 in0.0 mm 0.01 in0.3 mm
06:35 AM 63.8°F17.7°C 61.1°F16.2°C 91% 4.6 mph WSW7.4 kmh WSW 5.8 mph9.3 kmh 29.71 in1006.1 mb - 0.00 in0.0 mm 0.01 in0.3 mm
06:40 AM 64.0°F17.8°C 61.3°F16.3°C 91% 5.8 mph SW9.3 kmh SW 9.2 mph14.8 kmh 29.70 in1005.8 mb - 0.00 in0.0 mm 0.01 in0.3 mm
06:45 AM 63.6°F17.6°C 60.6°F15.9°C 90% 4.6 mph SW7.4 kmh SW 6.9 mph11.1 kmh 29.70 in1005.8 mb - 0.00 in0.0 mm 0.01 in0.3 mm
06:50 AM 63.7°F17.6°C 61.1°F16.2°C 91% 4.6 mph SW7.4 kmh SW 6.9 mph11.1 kmh 29.70 in1005.8 mb - 0.00 in0.0 mm 0.01 in0.3 mm
06:55 AM 64.5°F18.1°C 61.5°F16.4°C 90% 3.5 mph SW5.6 kmh SW 5.8 mph9.3 kmh 29.70 in1005.8 mb - 0.00 in0.0 mm 0.01 in0.3 mm
07:00 AM 64.4°F18.0°C 61.4°F16.3°C 90% 4.6 mph SW7.4 kmh SW 6.9 mph11.1 kmh 29.71 in1006.1 mb - 0.00 in0.0 mm 0.01 in0.3 mm
07:10 AM 65.3°F18.5°C 62.0°F16.7°C 89% 5.8 mph SSW9.3 kmh SSW 8.1 mph13.0 kmh 29.70 in1005.8 mb - 0.00 in0.0 mm 0.01 in0.3 mm
07:15 AM 65.7°F18.7°C 61.7°F16.5°C 87% 6.9 mph SW11.1 kmh SW 10.4 mph16.7 kmh 29.71 in1006.1 mb - 0.00 in0.0 mm 0.01 in0.3 mm
07:20 AM 65.5°F18.6°C 61.5°F16.4°C 87% 9.2 mph WSW14.8 kmh WSW 11.5 mph18.5 kmh 29.71 in1006.1 mb - 0.00 in0.0 mm 0.01 in0.3 mm
07:25 AM 65.3°F18.5°C 61.3°F16.3°C 87% 8.1 mph SW13.0 kmh SW 9.2 mph14.8 kmh 29.71 in1006.1 mb - 0.00 in0.0 mm 0.01 in0.3 mm
07:30 AM 66.1°F18.9°C 61.8°F16.6°C 86% 12.7 mph WSW20.4 kmh WSW 13.8 mph22.2 kmh 29.71 in1006.1 mb - 0.00 in0.0 mm 0.01 in0.3 mm
07:35 AM 66.2°F19.0°C 61.9°F16.6°C 86% 9.2 mph WSW14.8 kmh WSW 12.7 mph20.4 kmh 29.71 in1006.1 mb - 0.00 in0.0 mm 0.01 in0.3 mm
07:40 AM 67.0°F19.4°C 62.0°F16.7°C 84% 10.4 mph SW16.7 kmh SW 15.0 mph24.1 kmh 29.71 in1006.1 mb - 0.00 in0.0 mm 0.01 in0.3 mm
07:45 AM 67.0°F19.4°C 61.0°F16.1°C 81% 11.5 mph SW18.5 kmh SW 12.7 mph20.4 kmh 29.71 in1006.1 mb - 0.00 in0.0 mm 0.01 in0.3 mm
07:50 AM 66.7°F19.3°C 61.7°F16.5°C 84% 9.2 mph WSW14.8 kmh WSW 12.7 mph20.4 kmh 29.71 in1006.1 mb - 0.00 in0.0 mm 0.01 in0.3 mm
07:55 AM 66.7°F19.3°C 61.4°F16.3°C 83% 11.5 mph SW18.5 kmh SW 13.8 mph22.2 kmh 29.71 in1006.1 mb - 0.00 in0.0 mm 0.01 in0.3 mm
08:00 AM 66.2°F19.0°C 60.5°F15.8°C 82% 11.5 mph WSW18.5 kmh WSW 15.0 mph24.1 kmh 29.71 in1006.1 mb - 0.00 in0.0 mm 0.01 in0.3 mm
08:10 AM 65.9°F18.8°C 60.6°F15.9°C 83% 10.4 mph SW16.7 kmh SW 18.4 mph29.6 kmh 29.72 in1006.4 mb - 0.00 in0.0 mm 0.01 in0.3 mm
08:15 AM 65.9°F18.8°C 60.3°F15.7°C 82% 10.4 mph SW16.7 kmh SW 11.5 mph18.5 kmh 29.72 in1006.4 mb - 0.00 in0.0 mm 0.01 in0.3 mm
08:20 AM 67.0°F19.4°C 61.7°F16.5°C 83% 11.5 mph WSW18.5 kmh WSW 16.1 mph25.9 kmh 29.72 in1006.4 mb - 0.00 in0.0 mm 0.01 in0.3 mm
08:25 AM 66.5°F19.2°C 60.1°F15.6°C 80% 11.5 mph SW18.5 kmh SW 12.7 mph20.4 kmh 29.72 in1006.4 mb - 0.00 in0.0 mm 0.01 in0.3 mm
08:30 AM 66.2°F19.0°C 59.8°F15.4°C 80% 11.5 mph WSW18.5 kmh WSW 12.7 mph20.4 kmh 29.72 in1006.4 mb - 0.00 in0.0 mm 0.01 in0.3 mm
08:35 AM 66.3°F19.1°C 59.9°F15.5°C 80% 10.4 mph WSW16.7 kmh WSW 11.5 mph18.5 kmh 29.73 in1006.8 mb - 0.00 in0.0 mm 0.01 in0.3 mm
08:40 AM 65.7°F18.7°C 59.3°F15.2°C 80% 10.4 mph SW16.7 kmh SW 11.5 mph18.5 kmh 29.73 in1006.8 mb - 0.00 in0.0 mm 0.01 in0.3 mm
08:45 AM 65.2°F18.4°C 59.5°F15.3°C 82% 5.8 mph SW9.3 kmh SW 11.5 mph18.5 kmh 29.73 in1006.8 mb - 0.00 in0.0 mm 0.01 in0.3 mm
08:50 AM 64.9°F18.3°C 59.3°F15.2°C 82% 8.1 mph SW13.0 kmh SW 10.4 mph16.7 kmh 29.73 in1006.8 mb - 0.00 in0.0 mm 0.01 in0.3 mm
08:55 AM 64.9°F18.3°C 59.9°F15.5°C 84% 8.1 mph WSW13.0 kmh WSW 11.5 mph18.5 kmh 29.73 in1006.8 mb - 0.00 in0.0 mm 0.01 in0.3 mm
09:00 AM 64.9°F18.3°C 59.9°F15.5°C 84% 6.9 mph WSW11.1 kmh WSW 10.4 mph16.7 kmh 29.73 in1006.8 mb - 0.00 in0.0 mm 0.01 in0.3 mm
09:10 AM 64.5°F18.1°C 60.3°F15.7°C 86% 3.5 mph SW5.6 kmh SW 9.2 mph14.8 kmh 29.73 in1006.8 mb - 0.00 in0.0 mm 0.01 in0.3 mm
09:15 AM 64.0°F17.8°C 59.4°F15.2°C 85% 9.2 mph SW14.8 kmh SW 11.5 mph18.5 kmh 29.73 in1006.8 mb - 0.00 in0.0 mm 0.01 in0.3 mm
09:20 AM 63.8°F17.7°C 59.5°F15.3°C 86% 6.9 mph WSW11.1 kmh WSW 9.2 mph14.8 kmh 29.73 in1006.8 mb - 0.00 in0.0 mm 0.01 in0.3 mm
09:25 AM 63.8°F17.7°C 60.2°F15.7°C 88% 4.6 mph WSW7.4 kmh WSW 8.1 mph13.0 kmh 29.73 in1006.8 mb - 0.00 in0.0 mm 0.01 in0.3 mm
09:30 AM 64.0°F17.8°C 60.4°F15.8°C 88% 9.2 mph WSW14.8 kmh WSW 11.5 mph18.5 kmh 29.74 in1007.1 mb - 0.00 in0.0 mm 0.01 in0.3 mm
09:35 AM 63.7°F17.6°C 59.8°F15.4°C 87% 9.2 mph WSW14.8 kmh WSW 11.5 mph18.5 kmh 29.74 in1007.1 mb - 0.00 in0.0 mm 0.01 in0.3 mm
09:40 AM 63.7°F17.6°C 59.4°F15.2°C 86% 8.1 mph SW13.0 kmh SW 10.4 mph16.7 kmh 29.74 in1007.1 mb - 0.00 in0.0 mm 0.01 in0.3 mm
09:45 AM 64.5°F18.1°C 60.2°F15.7°C 86% 6.9 mph WSW11.1 kmh WSW 9.2 mph14.8 kmh 29.74 in1007.1 mb - 0.00 in0.0 mm 0.01 in0.3 mm
09:50 AM 65.0°F18.3°C 59.7°F15.4°C 83% 8.1 mph WSW13.0 kmh WSW 11.5 mph18.5 kmh 29.74 in1007.1 mb - 0.00 in0.0 mm 0.01 in0.3 mm
09:55 AM 64.9°F18.3°C 59.6°F15.3°C 83% 9.2 mph WSW14.8 kmh WSW 10.4 mph16.7 kmh 29.74 in1007.1 mb - 0.00 in0.0 mm 0.01 in0.3 mm
10:00 AM 65.0°F18.3°C 59.4°F15.2°C 82% 9.2 mph SW14.8 kmh SW 11.5 mph18.5 kmh 29.74 in1007.1 mb - 0.00 in0.0 mm 0.01 in0.3 mm
10:10 AM 65.1°F18.4°C 60.2°F15.7°C 84% 8.1 mph SW13.0 kmh SW 11.5 mph18.5 kmh 29.74 in1007.1 mb - 0.00 in0.0 mm 0.01 in0.3 mm
10:15 AM 65.8°F18.8°C 60.9°F16.1°C 84% 9.2 mph SW14.8 kmh SW 11.5 mph18.5 kmh 29.74 in1007.1 mb - 0.00 in0.0 mm 0.01 in0.3 mm
10:20 AM 65.4°F18.6°C 59.7°F15.4°C 82% 9.2 mph SW14.8 kmh SW 13.8 mph22.2 kmh 29.74 in1007.1 mb - 0.00 in0.0 mm 0.01 in0.3 mm
10:25 AM 65.3°F18.5°C 60.0°F15.6°C 83% 6.9 mph SW11.1 kmh SW 8.1 mph13.0 kmh 29.74 in1007.1 mb - 0.00 in0.0 mm 0.01 in0.3 mm
10:30 AM 65.5°F18.6°C 59.5°F15.3°C 81% 9.2 mph WSW14.8 kmh WSW 12.7 mph20.4 kmh 29.74 in1007.1 mb - 0.00 in0.0 mm 0.01 in0.3 mm
10:35 AM 65.1°F18.4°C 59.2°F15.1°C 81% 8.1 mph SW13.0 kmh SW 10.4 mph16.7 kmh 29.75 in1007.5 mb - 0.00 in0.0 mm 0.01 in0.3 mm
10:40 AM 65.2°F18.4°C 59.9°F15.5°C 83% 5.8 mph SW9.3 kmh SW 10.4 mph16.7 kmh 29.75 in1007.5 mb - 0.00 in0.0 mm 0.01 in0.3 mm
10:45 AM 65.2°F18.4°C 59.9°F15.5°C 83% 5.8 mph SW9.3 kmh SW 6.9 mph11.1 kmh 29.75 in1007.5 mb - 0.00 in0.0 mm 0.01 in0.3 mm
10:50 AM 64.9°F18.3°C 59.6°F15.3°C 83% 6.9 mph WSW11.1 kmh WSW 9.2 mph14.8 kmh 29.75 in1007.5 mb - 0.00 in0.0 mm 0.01 in0.3 mm
10:55 AM 64.5°F18.1°C 59.2°F15.1°C 83% 10.4 mph WSW16.7 kmh WSW 11.5 mph18.5 kmh 29.75 in1007.5 mb - 0.00 in0.0 mm 0.01 in0.3 mm
11:00 AM 64.7°F18.2°C 59.4°F15.2°C 83% 12.7 mph WSW20.4 kmh WSW 18.4 mph29.6 kmh 29.75 in1007.5 mb - 0.00 in0.0 mm 0.01 in0.3 mm
11:10 AM 64.6°F18.1°C 59.3°F15.2°C 83% 10.4 mph SW16.7 kmh SW 11.5 mph18.5 kmh 29.76 in1007.8 mb - 0.00 in0.0 mm 0.01 in0.3 mm
11:15 AM 64.1°F17.8°C 58.8°F14.9°C 83% 9.2 mph WSW14.8 kmh WSW 11.5 mph18.5 kmh 29.76 in1007.8 mb - 0.00 in0.0 mm 0.01 in0.3 mm
11:20 AM 63.7°F17.6°C 58.8°F14.9°C 84% 10.4 mph WSW16.7 kmh WSW 13.8 mph22.2 kmh 29.76 in1007.8 mb - 0.00 in0.0 mm 0.01 in0.3 mm
11:25 AM 63.7°F17.6°C 58.8°F14.9°C 84% 8.1 mph SW13.0 kmh SW 10.4 mph16.7 kmh 29.76 in1007.8 mb - 0.00 in0.0 mm 0.01 in0.3 mm
11:30 AM 63.5°F17.5°C 58.6°F14.8°C 84% 8.1 mph WSW13.0 kmh WSW 10.4 mph16.7 kmh 29.77 in1008.1 mb - 0.00 in0.0 mm 0.01 in0.3 mm
11:35 AM 63.6°F17.6°C 58.7°F14.8°C 84% 6.9 mph SW11.1 kmh SW 11.5 mph18.5 kmh 29.77 in1008.1 mb - 0.00 in0.0 mm 0.01 in0.3 mm
11:40 AM 63.5°F17.5°C 58.9°F14.9°C 85% 8.1 mph WSW13.0 kmh WSW 10.4 mph16.7 kmh 29.77 in1008.1 mb - 0.00 in0.0 mm 0.01 in0.3 mm
11:45 AM 63.9°F17.7°C 58.9°F14.9°C 84% 8.1 mph WSW13.0 kmh WSW 11.5 mph18.5 kmh 29.77 in1008.1 mb - 0.00 in0.0 mm 0.01 in0.3 mm
11:50 AM 64.6°F18.1°C 59.3°F15.2°C 83% 9.2 mph WSW14.8 kmh WSW 11.5 mph18.5 kmh 29.77 in1008.1 mb - 0.00 in0.0 mm 0.01 in0.3 mm
11:55 AM 64.3°F17.9°C 58.7°F14.8°C 82% 10.4 mph WSW16.7 kmh WSW 12.7 mph20.4 kmh 29.77 in1008.1 mb - 0.00 in0.0 mm 0.01 in0.3 mm
12:00 PM 64.1°F17.8°C 58.5°F14.7°C 82% 11.5 mph WSW18.5 kmh WSW 13.8 mph22.2 kmh 29.77 in1008.1 mb - 0.00 in0.0 mm 0.01 in0.3 mm
12:10 PM 64.4°F18.0°C 59.1°F15.1°C 83% 9.2 mph WSW14.8 kmh WSW 11.5 mph18.5 kmh 29.77 in1008.1 mb - 0.00 in0.0 mm 0.01 in0.3 mm
12:15 PM 64.6°F18.1°C 59.0°F15.0°C 82% 10.4 mph WSW16.7 kmh WSW 13.8 mph22.2 kmh 29.78 in1008.5 mb - 0.00 in0.0 mm 0.01 in0.3 mm
12:20 PM 64.4°F18.0°C 58.4°F14.7°C 81% 10.4 mph WSW16.7 kmh WSW 15.0 mph24.1 kmh 29.78 in1008.5 mb - 0.00 in0.0 mm 0.01 in0.3 mm
12:25 PM 64.1°F17.8°C 58.4°F14.7°C 82% 11.5 mph WSW18.5 kmh WSW 12.7 mph20.4 kmh 29.78 in1008.5 mb - 0.00 in0.0 mm 0.01 in0.3 mm
12:30 PM 63.7°F17.6°C 58.4°F14.7°C 83% 9.2 mph WSW14.8 kmh WSW 11.5 mph18.5 kmh 29.79 in1008.8 mb - 0.00 in0.0 mm 0.01 in0.3 mm
12:35 PM 63.5°F17.5°C 58.2°F14.6°C 83% 8.1 mph WSW13.0 kmh WSW 10.4 mph16.7 kmh 29.79 in1008.8 mb - 0.00 in0.0 mm 0.01 in0.3 mm
12:40 PM 63.2°F17.3°C 58.3°F14.6°C 84% 11.5 mph WSW18.5 kmh WSW 15.0 mph24.1 kmh 29.79 in1008.8 mb - 0.00 in0.0 mm 0.01 in0.3 mm
12:45 PM 63.1°F17.3°C 58.2°F14.6°C 84% 6.9 mph WSW11.1 kmh WSW 10.4 mph16.7 kmh 29.79 in1008.8 mb - 0.00 in0.0 mm 0.01 in0.3 mm
12:50 PM 63.5°F17.5°C 58.9°F14.9°C 85% 5.8 mph WSW9.3 kmh WSW 9.2 mph14.8 kmh 29.79 in1008.8 mb - 0.00 in0.0 mm 0.01 in0.3 mm
12:55 PM 63.9°F17.7°C 59.0°F15.0°C 84% 8.1 mph WSW13.0 kmh WSW 11.5 mph18.5 kmh 29.79 in1008.8 mb - 0.00 in0.0 mm 0.01 in0.3 mm
01:00 PM 63.8°F17.7°C 58.5°F14.7°C 83% 10.4 mph WSW16.7 kmh WSW 13.8 mph22.2 kmh 29.80 in1009.1 mb - 0.00 in0.0 mm 0.01 in0.3 mm
01:10 PM 63.3°F17.4°C 58.4°F14.7°C 84% 10.4 mph WSW16.7 kmh WSW 13.8 mph22.2 kmh 29.80 in1009.1 mb - 0.00 in0.0 mm 0.01 in0.3 mm
01:15 PM 63.5°F17.5°C 58.6°F14.8°C 84% 9.2 mph WSW14.8 kmh WSW 11.5 mph18.5 kmh 29.80 in1009.1 mb - 0.00 in0.0 mm 0.01 in0.3 mm
01:20 PM 63.5°F17.5°C 57.9°F14.4°C 82% 10.4 mph WSW16.7 kmh WSW 15.0 mph24.1 kmh 29.80 in1009.1 mb - 0.00 in0.0 mm 0.01 in0.3 mm
01:25 PM 63.6°F17.6°C 58.4°F14.7°C 83% 8.1 mph WSW13.0 kmh WSW 9.2 mph14.8 kmh 29.80 in1009.1 mb - 0.00 in0.0 mm 0.01 in0.3 mm
01:30 PM 63.8°F17.7°C 58.5°F14.7°C 83% 8.1 mph W13.0 kmh W 11.5 mph18.5 kmh 29.80 in1009.1 mb - 0.00 in0.0 mm 0.01 in0.3 mm
01:35 PM 63.9°F17.7°C 58.9°F14.9°C 84% 8.1 mph WSW13.0 kmh WSW 10.4 mph16.7 kmh 29.81 in1009.5 mb - 0.00 in0.0 mm 0.01 in0.3 mm
01:40 PM 64.0°F17.8°C 58.1°F14.5°C 81% 9.2 mph WSW14.8 kmh WSW 13.8 mph22.2 kmh 29.80 in1009.1 mb - 0.00 in0.0 mm 0.01 in0.3 mm
01:45 PM 64.0°F17.8°C 58.0°F14.4°C 81% 8.1 mph W13.0 kmh W 10.4 mph16.7 kmh 29.80 in1009.1 mb - 0.00 in0.0 mm 0.01 in0.3 mm
01:50 PM 64.0°F17.8°C 58.1°F14.5°C 81% 9.2 mph WSW14.8 kmh WSW 12.7 mph20.4 kmh 29.81 in1009.5 mb - 0.00 in0.0 mm 0.01 in0.3 mm
01:55 PM 63.9°F17.7°C 58.0°F14.4°C 81% 12.7 mph WSW20.4 kmh WSW 15.0 mph24.1 kmh 29.81 in1009.5 mb - 0.00 in0.0 mm 0.01 in0.3 mm
02:00 PM 64.0°F17.8°C 58.1°F14.5°C 81% 11.5 mph WSW18.5 kmh WSW 12.7 mph20.4 kmh 29.81 in1009.5 mb - 0.00 in0.0 mm 0.01 in0.3 mm
02:10 PM 63.8°F17.7°C 57.9°F14.4°C 81% 9.2 mph W14.8 kmh W 15.0 mph24.1 kmh 29.81 in1009.5 mb - 0.00 in0.0 mm 0.01 in0.3 mm
02:15 PM 63.7°F17.6°C 57.7°F14.3°C 81% 11.5 mph WSW18.5 kmh WSW 11.5 mph18.5 kmh 29.81 in1009.5 mb - 0.00 in0.0 mm 0.01 in0.3 mm
02:20 PM 63.7°F17.6°C 58.1°F14.5°C 82% 8.1 mph W13.0 kmh W 10.4 mph16.7 kmh 29.81 in1009.5 mb - 0.00 in0.0 mm 0.01 in0.3 mm
02:25 PM 64.1°F17.8°C 58.5°F14.7°C 82% 6.9 mph W11.1 kmh W 11.5 mph18.5 kmh 29.81 in1009.5 mb - 0.00 in0.0 mm 0.01 in0.3 mm
02:30 PM 64.2°F17.9°C 58.6°F14.8°C 82% 8.1 mph W13.0 kmh W 11.5 mph18.5 kmh 29.81 in1009.5 mb - 0.00 in0.0 mm 0.01 in0.3 mm
02:35 PM 65.0°F18.3°C 59.3°F15.2°C 82% 8.1 mph W13.0 kmh W 11.5 mph18.5 kmh 29.81 in1009.5 mb - 0.00 in0.0 mm 0.01 in0.3 mm
02:40 PM 65.5°F18.6°C 58.5°F14.7°C 78% 9.2 mph WSW14.8 kmh WSW 11.5 mph18.5 kmh 29.81 in1009.5 mb - 0.00 in0.0 mm 0.01 in0.3 mm
02:45 PM 65.5°F18.6°C 58.8°F14.9°C 79% 9.2 mph W14.8 kmh W 11.5 mph18.5 kmh 29.81 in1009.5 mb - 0.00 in0.0 mm 0.01 in0.3 mm
02:50 PM 64.9°F18.3°C 58.6°F14.8°C 80% 8.1 mph W13.0 kmh W 8.1 mph13.0 kmh 29.81 in1009.5 mb - 0.00 in0.0 mm 0.01 in0.3 mm
02:55 PM 64.6°F18.1°C 58.3°F14.6°C 80% 6.9 mph WSW11.1 kmh WSW 10.4 mph16.7 kmh 29.82 in1009.8 mb - 0.00 in0.0 mm 0.01 in0.3 mm
03:00 PM 64.4°F18.0°C 58.1°F14.5°C 80% 8.1 mph WSW13.0 kmh WSW 11.5 mph18.5 kmh 29.82 in1009.8 mb - 0.00 in0.0 mm 0.01 in0.3 mm
03:10 PM 65.1°F18.4°C 58.1°F14.5°C 78% 9.2 mph WSW14.8 kmh WSW 11.5 mph18.5 kmh 29.82 in1009.8 mb - 0.00 in0.0 mm 0.01 in0.3 mm
03:15 PM 65.0°F18.3°C 58.0°F14.4°C 78% 9.2 mph WSW14.8 kmh WSW 11.5 mph18.5 kmh 29.82 in1009.8 mb - 0.00 in0.0 mm 0.01 in0.3 mm
03:20 PM 64.6°F18.1°C 57.9°F14.4°C 79% 9.2 mph WSW14.8 kmh WSW 10.4 mph16.7 kmh 29.82 in1009.8 mb - 0.00 in0.0 mm 0.01 in0.3 mm
03:25 PM 65.0°F18.3°C 58.7°F14.8°C 80% 6.9 mph W11.1 kmh W 9.2 mph14.8 kmh 29.82 in1009.8 mb - 0.00 in0.0 mm 0.01 in0.3 mm
03:30 PM 65.8°F18.8°C 58.0°F14.4°C 76% 11.5 mph WSW18.5 kmh WSW 13.8 mph22.2 kmh 29.82 in1009.8 mb - 0.00 in0.0 mm 0.01 in0.3 mm
03:35 PM 65.8°F18.8°C 58.0°F14.4°C 76% 11.5 mph W18.5 kmh W 17.3 mph27.8 kmh 29.82 in1009.8 mb - 0.00 in0.0 mm 0.01 in0.3 mm
03:40 PM 65.7°F18.7°C 58.3°F14.6°C 77% 6.9 mph W11.1 kmh W 9.2 mph14.8 kmh 29.82 in1009.8 mb - 0.00 in0.0 mm 0.01 in0.3 mm
03:45 PM 65.3°F18.5°C 58.3°F14.6°C 78% 8.1 mph W13.0 kmh W 11.5 mph18.5 kmh 29.82 in1009.8 mb - 0.00 in0.0 mm 0.01 in0.3 mm
03:50 PM 65.1°F18.4°C 58.4°F14.7°C 79% 8.1 mph W13.0 kmh W 10.4 mph16.7 kmh 29.82 in1009.8 mb - 0.00 in0.0 mm 0.01 in0.3 mm
03:55 PM 64.9°F18.3°C 57.9°F14.4°C 78% 6.9 mph W11.1 kmh W 8.1 mph13.0 kmh 29.83 in1010.2 mb - 0.00 in0.0 mm 0.01 in0.3 mm
04:00 PM 64.6°F18.1°C 58.0°F14.4°C 79% 8.1 mph W13.0 kmh W 10.4 mph16.7 kmh 29.83 in1010.2 mb - 0.00 in0.0 mm 0.01 in0.3 mm
04:10 PM 65.3°F18.5°C 57.9°F14.4°C 77% 10.4 mph WSW16.7 kmh WSW 11.5 mph18.5 kmh 29.83 in1010.2 mb - 0.00 in0.0 mm 0.01 in0.3 mm
04:15 PM 65.0°F18.3°C 57.6°F14.2°C 77% 8.1 mph WSW13.0 kmh WSW 11.5 mph18.5 kmh 29.83 in1010.2 mb - 0.00 in0.0 mm 0.01 in0.3 mm
04:20 PM 65.5°F18.6°C 58.8°F14.9°C 79% 8.1 mph W13.0 kmh W 10.4 mph16.7 kmh 29.83 in1010.2 mb - 0.00 in0.0 mm 0.01 in0.3 mm
04:25 PM 66.2°F19.0°C 58.0°F14.4°C 75% 10.4 mph W16.7 kmh W 13.8 mph22.2 kmh 29.83 in1010.2 mb - 0.00 in0.0 mm 0.01 in0.3 mm
04:30 PM 65.4°F18.6°C 57.6°F14.2°C 76% 10.4 mph W16.7 kmh W 13.8 mph22.2 kmh 29.83 in1010.2 mb - 0.00 in0.0 mm 0.01 in0.3 mm
04:35 PM 65.1°F18.4°C 57.0°F13.9°C 75% 9.2 mph WSW14.8 kmh WSW 12.7 mph20.4 kmh 29.83 in1010.2 mb - 0.00 in0.0 mm 0.01 in0.3 mm
04:40 PM 64.8°F18.2°C 56.7°F13.7°C 75% 9.2 mph WSW14.8 kmh WSW 11.5 mph18.5 kmh 29.83 in1010.2 mb - 0.00 in0.0 mm 0.01 in0.3 mm
04:45 PM 64.7°F18.2°C 56.9°F13.8°C 76% 10.4 mph WSW16.7 kmh WSW 12.7 mph20.4 kmh 29.83 in1010.2 mb - 0.00 in0.0 mm 0.01 in0.3 mm
04:50 PM 64.2°F17.9°C 56.5°F13.6°C 76% 10.4 mph W16.7 kmh W 11.5 mph18.5 kmh 29.83 in1010.2 mb - 0.00 in0.0 mm 0.01 in0.3 mm
04:55 PM 64.1°F17.8°C 56.8°F13.8°C 77% 9.2 mph WNW14.8 kmh WNW 12.7 mph20.4 kmh 29.83 in1010.2 mb - 0.00 in0.0 mm 0.01 in0.3 mm
05:00 PM 64.3°F17.9°C 56.6°F13.7°C 76% 9.2 mph W14.8 kmh W 10.4 mph16.7 kmh 29.83 in1010.2 mb - 0.00 in0.0 mm 0.01 in0.3 mm
05:10 PM 65.2°F18.4°C 56.7°F13.7°C 74% 6.9 mph WNW11.1 kmh WNW 10.4 mph16.7 kmh 29.83 in1010.2 mb - 0.00 in0.0 mm 0.01 in0.3 mm
05:15 PM 64.5°F18.1°C 56.4°F13.6°C 75% 8.1 mph W13.0 kmh W 9.2 mph14.8 kmh 29.83 in1010.2 mb - 0.00 in0.0 mm 0.01 in0.3 mm
05:20 PM 64.7°F18.2°C 56.6°F13.7°C 75% 9.2 mph WNW14.8 kmh WNW 13.8 mph22.2 kmh 29.83 in1010.2 mb - 0.00 in0.0 mm 0.01 in0.3 mm
05:25 PM 64.5°F18.1°C 57.4°F14.1°C 78% 8.1 mph WNW13.0 kmh WNW 11.5 mph18.5 kmh 29.84 in1010.5 mb - 0.00 in0.0 mm 0.01 in0.3 mm
05:30 PM 64.3°F17.9°C 56.6°F13.7°C 76% 8.1 mph WSW13.0 kmh WSW 10.4 mph16.7 kmh 29.84 in1010.5 mb - 0.00 in0.0 mm 0.01 in0.3 mm
05:35 PM 64.0°F17.8°C 56.3°F13.5°C 76% 8.1 mph W13.0 kmh W 11.5 mph18.5 kmh 29.84 in1010.5 mb - 0.00 in0.0 mm 0.01 in0.3 mm
05:40 PM 63.5°F17.5°C 56.2°F13.4°C 77% 6.9 mph WNW11.1 kmh WNW 8.1 mph13.0 kmh 29.84 in1010.5 mb - 0.00 in0.0 mm 0.01 in0.3 mm
05:45 PM 63.3°F17.4°C 56.0°F13.3°C 77% 8.1 mph W13.0 kmh W 10.4 mph16.7 kmh 29.84 in1010.5 mb - 0.00 in0.0 mm 0.01 in0.3 mm
05:50 PM 63.2°F17.3°C 55.9°F13.3°C 77% 6.9 mph W11.1 kmh W 11.5 mph18.5 kmh 29.84 in1010.5 mb - 0.00 in0.0 mm 0.01 in0.3 mm
05:55 PM 63.1°F17.3°C 56.1°F13.4°C 78% 6.9 mph W11.1 kmh W 9.2 mph14.8 kmh 29.84 in1010.5 mb - 0.00 in0.0 mm 0.01 in0.3 mm
06:00 PM 63.2°F17.3°C 56.2°F13.4°C 78% 4.6 mph WNW7.4 kmh WNW 6.9 mph11.1 kmh 29.84 in1010.5 mb - 0.00 in0.0 mm 0.01 in0.3 mm
06:10 PM 63.3°F17.4°C 56.4°F13.6°C 78% 4.6 mph W7.4 kmh W 5.8 mph9.3 kmh 29.84 in1010.5 mb - 0.00 in0.0 mm 0.01 in0.3 mm
06:15 PM 63.0°F17.2°C 55.7°F13.2°C 77% 8.1 mph WNW13.0 kmh WNW 9.2 mph14.8 kmh 29.84 in1010.5 mb - 0.00 in0.0 mm 0.01 in0.3 mm
06:20 PM 63.1°F17.3°C 56.5°F13.6°C 79% 4.6 mph NW7.4 kmh NW 6.9 mph11.1 kmh 29.85 in1010.8 mb - 0.00 in0.0 mm 0.01 in0.3 mm
06:25 PM 63.0°F17.2°C 55.7°F13.2°C 77% 5.8 mph NW9.3 kmh NW 8.1 mph13.0 kmh 29.84 in1010.5 mb - 0.00 in0.0 mm 0.01 in0.3 mm
06:30 PM 63.1°F17.3°C 56.1°F13.4°C 78% 5.8 mph NW9.3 kmh NW 8.1 mph13.0 kmh 29.84 in1010.5 mb - 0.00 in0.0 mm 0.01 in0.3 mm
06:35 PM 62.9°F17.2°C 55.9°F13.3°C 78% 6.9 mph NW11.1 kmh NW 8.1 mph13.0 kmh 29.84 in1010.5 mb - 0.00 in0.0 mm 0.01 in0.3 mm
06:40 PM 63.2°F17.3°C 56.3°F13.5°C 78% 8.1 mph W13.0 kmh W 10.4 mph16.7 kmh 29.84 in1010.5 mb - 0.00 in0.0 mm 0.01 in0.3 mm
06:45 PM 63.1°F17.3°C 56.1°F13.4°C 78% 6.9 mph WNW11.1 kmh WNW 9.2 mph14.8 kmh 29.85 in1010.8 mb - 0.00 in0.0 mm 0.01 in0.3 mm
06:50 PM 63.2°F17.3°C 56.2°F13.4°C 78% 6.9 mph WSW11.1 kmh WSW 8.1 mph13.0 kmh 29.84 in1010.5 mb - 0.00 in0.0 mm 0.01 in0.3 mm
06:55 PM 63.3°F17.4°C 56.3°F13.5°C 78% 5.8 mph WNW9.3 kmh WNW 9.2 mph14.8 kmh 29.85 in1010.8 mb - 0.00 in0.0 mm 0.01 in0.3 mm
07:00 PM 63.3°F17.4°C 56.0°F13.3°C 77% 5.8 mph WNW9.3 kmh WNW 8.1 mph13.0 kmh 29.85 in1010.8 mb - 0.00 in0.0 mm 0.01 in0.3 mm
07:10 PM 61.8°F16.6°C 54.8°F12.7°C 78% 3.5 mph WNW5.6 kmh WNW 3.5 mph5.6 kmh 29.85 in1010.8 mb - 0.00 in0.0 mm 0.01 in0.3 mm
07:15 PM 61.5°F16.4°C 55.3°F12.9°C 80% 2.3 mph NW3.7 kmh NW 3.5 mph5.6 kmh 29.85 in1010.8 mb - 0.00 in0.0 mm 0.01 in0.3 mm
07:20 PM 61.6°F16.4°C 55.3°F12.9°C 80% 2.3 mph WNW3.7 kmh WNW 3.5 mph5.6 kmh 29.85 in1010.8 mb - 0.00 in0.0 mm 0.01 in0.3 mm
07:25 PM 61.8°F16.6°C 55.6°F13.1°C 80% 2.3 mph W3.7 kmh W 3.5 mph5.6 kmh 29.85 in1010.8 mb - 0.00 in0.0 mm 0.01 in0.3 mm
07:30 PM 61.8°F16.6°C 55.9°F13.3°C 81% 2.3 mph W3.7 kmh W 3.5 mph5.6 kmh 29.85 in1010.8 mb - 0.00 in0.0 mm 0.01 in0.3 mm
07:35 PM 61.7°F16.5°C 55.8°F13.2°C 81% 2.3 mph W3.7 kmh W 3.5 mph5.6 kmh 29.86 in1011.2 mb - 0.00 in0.0 mm 0.01 in0.3 mm
07:40 PM 61.6°F16.4°C 55.7°F13.2°C 81% 2.3 mph WNW3.7 kmh WNW 3.5 mph5.6 kmh 29.86 in1011.2 mb - 0.00 in0.0 mm 0.01 in0.3 mm
07:45 PM 61.6°F16.4°C 56.1°F13.4°C 82% 2.3 mph W3.7 kmh W 3.5 mph5.6 kmh 29.86 in1011.2 mb - 0.00 in0.0 mm 0.01 in0.3 mm
07:50 PM 61.7°F16.5°C 56.1°F13.4°C 82% 3.5 mph W5.6 kmh W 3.5 mph5.6 kmh 29.86 in1011.2 mb - 0.00 in0.0 mm 0.01 in0.3 mm
07:55 PM 61.5°F16.4°C 56.0°F13.3°C 82% 4.6 mph W7.4 kmh W 6.9 mph11.1 kmh 29.86 in1011.2 mb - 0.00 in0.0 mm 0.01 in0.3 mm
08:00 PM 61.3°F16.3°C 55.8°F13.2°C 82% 5.8 mph W9.3 kmh W 8.1 mph13.0 kmh 29.87 in1011.5 mb - 0.00 in0.0 mm 0.01 in0.3 mm
08:10 PM 61.0°F16.1°C 55.5°F13.1°C 82% 5.8 mph WNW9.3 kmh WNW 6.9 mph11.1 kmh 29.87 in1011.5 mb - 0.00 in0.0 mm 0.01 in0.3 mm
08:15 PM 60.9°F16.1°C 55.7°F13.2°C 83% 5.8 mph W9.3 kmh W 6.9 mph11.1 kmh 29.87 in1011.5 mb - 0.00 in0.0 mm 0.01 in0.3 mm
08:20 PM 60.7°F15.9°C 55.5°F13.1°C 83% 4.6 mph W7.4 kmh W 8.1 mph13.0 kmh 29.87 in1011.5 mb - 0.00 in0.0 mm 0.01 in0.3 mm
08:25 PM 60.6°F15.9°C 55.4°F13.0°C 83% 4.6 mph NW7.4 kmh NW 8.1 mph13.0 kmh 29.87 in1011.5 mb - 0.00 in0.0 mm 0.01 in0.3 mm
08:30 PM 60.5°F15.8°C 55.3°F12.9°C 83% 4.6 mph WNW7.4 kmh WNW 5.8 mph9.3 kmh 29.88 in1011.9 mb - 0.00 in0.0 mm 0.01 in0.3 mm
08:35 PM 60.3°F15.7°C 55.1°F12.8°C 83% 1.2 mph W1.9 kmh W 3.5 mph5.6 kmh 29.88 in1011.9 mb - 0.00 in0.0 mm 0.01 in0.3 mm
08:40 PM 60.1°F15.6°C 55.2°F12.9°C 84% 2.3 mph W3.7 kmh W 3.5 mph5.6 kmh 29.88 in1011.9 mb - 0.00 in0.0 mm 0.01 in0.3 mm
08:45 PM 60.0°F15.6°C 55.2°F12.9°C 84% 2.3 mph W3.7 kmh W 3.5 mph5.6 kmh 29.88 in1011.9 mb - 0.00 in0.0 mm 0.01 in0.3 mm
08:50 PM 59.9°F15.5°C 55.1°F12.8°C 84% 2.3 mph W3.7 kmh W 3.5 mph5.6 kmh 29.88 in1011.9 mb - 0.00 in0.0 mm 0.01 in0.3 mm
08:55 PM 59.9°F15.5°C 55.0°F12.8°C 84% 1.2 mph WNW1.9 kmh WNW 2.3 mph3.7 kmh 29.88 in1011.9 mb - 0.00 in0.0 mm 0.01 in0.3 mm
09:00 PM 59.8°F15.4°C 55.3°F12.9°C 85% 2.3 mph W3.7 kmh W 3.5 mph5.6 kmh 29.88 in1011.9 mb - 0.00 in0.0 mm 0.01 in0.3 mm
09:10 PM 59.8°F15.4°C 55.3°F12.9°C 85% 3.5 mph WNW5.6 kmh WNW 3.5 mph5.6 kmh 29.88 in1011.9 mb - 0.00 in0.0 mm 0.01 in0.3 mm
09:15 PM 59.8°F15.4°C 55.2°F12.9°C 85% 2.3 mph W3.7 kmh W 3.5 mph5.6 kmh 29.89 in1012.2 mb - 0.00 in0.0 mm 0.01 in0.3 mm
09:20 PM 59.8°F15.4°C 55.0°F12.8°C 84% 3.5 mph W5.6 kmh W 3.5 mph5.6 kmh 29.89 in1012.2 mb - 0.00 in0.0 mm 0.01 in0.3 mm
09:25 PM 59.7°F15.4°C 55.2°F12.9°C 85% 3.5 mph W5.6 kmh W 5.8 mph9.3 kmh 29.89 in1012.2 mb - 0.00 in0.0 mm 0.01 in0.3 mm
09:30 PM 59.7°F15.4°C 55.2°F12.9°C 85% 4.6 mph WSW7.4 kmh WSW 6.9 mph11.1 kmh 29.89 in1012.2 mb - 0.00 in0.0 mm 0.01 in0.3 mm
09:35 PM 59.6°F15.3°C 54.8°F12.7°C 84% 4.6 mph W7.4 kmh W 9.2 mph14.8 kmh 29.89 in1012.2 mb - 0.00 in0.0 mm 0.01 in0.3 mm
09:40 PM 59.5°F15.3°C 54.7°F12.6°C 84% 3.5 mph W5.6 kmh W 3.5 mph5.6 kmh 29.90 in1012.5 mb - 0.00 in0.0 mm 0.01 in0.3 mm
09:45 PM 59.4°F15.2°C 54.5°F12.5°C 84% 3.5 mph W5.6 kmh W 3.5 mph5.6 kmh 29.90 in1012.5 mb - 0.00 in0.0 mm 0.01 in0.3 mm
09:50 PM 59.1°F15.1°C 54.3°F12.4°C 84% 3.5 mph W5.6 kmh W 3.5 mph5.6 kmh 29.90 in1012.5 mb - 0.00 in0.0 mm 0.01 in0.3 mm
09:55 PM 58.7°F14.8°C 54.2°F12.3°C 85% 3.5 mph W5.6 kmh W 3.5 mph5.6 kmh 29.90 in1012.5 mb - 0.00 in0.0 mm 0.01 in0.3 mm
10:00 PM 58.2°F14.6°C 54.1°F12.3°C 86% 3.5 mph W5.6 kmh W 3.5 mph5.6 kmh 29.90 in1012.5 mb - 0.00 in0.0 mm 0.01 in0.3 mm
10:10 PM 57.4°F14.1°C 53.2°F11.8°C 86% 2.3 mph W3.7 kmh W 3.5 mph5.6 kmh 29.90 in1012.5 mb - 0.00 in0.0 mm 0.01 in0.3 mm
10:15 PM 57.1°F13.9°C 53.3°F11.8°C 87% 2.3 mph WNW3.7 kmh WNW 3.5 mph5.6 kmh 29.90 in1012.5 mb - 0.00 in0.0 mm 0.01 in0.3 mm
10:20 PM 56.8°F13.8°C 53.0°F11.7°C 87% 3.5 mph W5.6 kmh W 3.5 mph5.6 kmh 29.90 in1012.5 mb - 0.00 in0.0 mm 0.01 in0.3 mm
10:25 PM 56.6°F13.7°C 52.8°F11.6°C 87% 3.5 mph W5.6 kmh W 3.5 mph5.6 kmh 29.91 in1012.9 mb - 0.00 in0.0 mm 0.01 in0.3 mm
10:30 PM 56.3°F13.5°C 52.5°F11.4°C 87% 2.3 mph W3.7 kmh W 3.5 mph5.6 kmh 29.91 in1012.9 mb - 0.00 in0.0 mm 0.01 in0.3 mm
10:35 PM 56.3°F13.5°C 52.4°F11.3°C 87% 2.3 mph W3.7 kmh W 2.3 mph3.7 kmh 29.91 in1012.9 mb - 0.00 in0.0 mm 0.01 in0.3 mm
10:40 PM 56.0°F13.3°C 52.2°F11.2°C 87% 2.3 mph WNW3.7 kmh WNW 3.5 mph5.6 kmh 29.91 in1012.9 mb - 0.00 in0.0 mm 0.01 in0.3 mm
10:45 PM 55.8°F13.2°C 52.3°F11.3°C 88% 2.3 mph W3.7 kmh W 3.5 mph5.6 kmh 29.91 in1012.9 mb - 0.00 in0.0 mm 0.01 in0.3 mm
10:50 PM 55.6°F13.1°C 52.1°F11.2°C 88% 3.5 mph W5.6 kmh W 3.5 mph5.6 kmh 29.91 in1012.9 mb - 0.00 in0.0 mm 0.01 in0.3 mm
10:55 PM 55.5°F13.1°C 52.0°F11.1°C 88% 2.3 mph W3.7 kmh W 3.5 mph5.6 kmh 29.92 in1013.2 mb - 0.00 in0.0 mm 0.01 in0.3 mm
11:00 PM 55.3°F12.9°C 51.8°F11.0°C 88% 2.3 mph W3.7 kmh W 3.5 mph5.6 kmh 29.92 in1013.2 mb - 0.00 in0.0 mm 0.11 in2.8 mm
11:10 PM 55.3°F12.9°C 52.1°F11.2°C 89% 1.2 mph W1.9 kmh W 1.2 mph1.9 kmh 29.92 in1013.2 mb - 0.00 in0.0 mm 0.11 in2.8 mm
11:15 PM 54.9°F12.7°C 51.4°F10.8°C 88% 1.2 mph W1.9 kmh W 2.3 mph3.7 kmh 29.92 in1013.2 mb - 0.00 in0.0 mm 0.11 in2.8 mm
11:20 PM 54.8°F12.7°C 51.6°F10.9°C 89% 1.2 mph W1.9 kmh W 1.2 mph1.9 kmh 29.92 in1013.2 mb - 0.00 in0.0 mm 0.11 in2.8 mm
11:25 PM 54.4°F12.4°C 51.2°F10.7°C 89% 1.2 mph W1.9 kmh W 2.3 mph3.7 kmh 29.92 in1013.2 mb - 0.00 in0.0 mm 0.11 in2.8 mm
11:30 PM 54.1°F12.3°C 51.2°F10.7°C 90% 1.2 mph W1.9 kmh W 2.3 mph3.7 kmh 29.92 in1013.2 mb - 0.00 in0.0 mm 0.11 in2.8 mm
11:35 PM 54.2°F12.3°C 51.3°F10.7°C 90% 2.3 mph W3.7 kmh W 2.3 mph3.7 kmh 29.92 in1013.2 mb - 0.00 in0.0 mm 0.11 in2.8 mm
11:40 PM 53.8°F12.1°C 50.9°F10.5°C 90% 1.2 mph W1.9 kmh W 2.3 mph3.7 kmh 29.92 in1013.2 mb - 0.00 in0.0 mm 0.11 in2.8 mm
11:45 PM 53.7°F12.1°C 50.8°F10.4°C 90% 1.2 mph W1.9 kmh W 2.3 mph3.7 kmh 29.93 in1013.5 mb - 0.00 in0.0 mm 0.11 in2.8 mm
11:50 PM 53.7°F12.1°C 51.2°F10.7°C 91% 1.2 mph W1.9 kmh W 1.2 mph1.9 kmh 29.92 in1013.2 mb - 0.00 in0.0 mm 0.11 in2.8 mm
11:55 PM 53.8°F12.1°C 51.2°F10.7°C 91% Calm Calm -- 29.93 in1013.5 mb - 0.00 in0.0 mm 0.11 in2.8 mm